KBGD/BGD METAR and TAF weather

Enter ICAO airport designator
Station Type Date Time Source
KBGD METAR 2020/01/18 21:51 UTC NOAA

KBGD 182151Z AUTO 04003KT 10SM FEW080 FEW110 09/M11 A3039 RMK AO2 SLP291 T00891111


Station Type Date Time Source
KBGD Decoded METAR 2020/01/18 21:51 UTC NOAA

BORGER HUTCHINSON CO AIRPORT , TX, United States (KBGD) 35-42N 101-24W 927M
Jan 18, 2020 - 04:51 PM EST / 2020.01.18 2151 UTC
Wind: from the NE (040 degrees) at 3 MPH (3 KT):0
Visibility: 10 mile(s):0
Sky conditions: mostly clear
Temperature: 48.0 F (8.9 C)
Dew Point: 12.0 F (-11.1 C)
Relative Humidity: 23%
Pressure (altimeter): 30.39 in. Hg (1029 hPa)
ob: KBGD 182151Z AUTO 04003KT 10SM FEW080 FEW110 09/M11 A3039 RMK AO2 SLP291 T00891111
cycle: 22

Station Type Date Time Source
KBGD TAF UTC NOAA

Error!

Example: see airport list